sensor_id;sensor_type;location;lat;lon;timestamp;temperature;humidity
74661;SHT31;63191;39.566;2.654;2023-06-10T00:01:45;21.48;82.38
74661;SHT31;63191;39.566;2.654;2023-06-10T00:04:14;21.46;82.39
74661;SHT31;63191;39.566;2.654;2023-06-10T00:06:42;21.45;82.38
74661;SHT31;63191;39.566;2.654;2023-06-10T00:09:09;21.44;82.40
74661;SHT31;63191;39.566;2.654;2023-06-10T00:11:39;21.43;82.38
74661;SHT31;63191;39.566;2.654;2023-06-10T00:14:06;21.42;82.32
74661;SHT31;63191;39.566;2.654;2023-06-10T00:16:32;21.40;82.30
74661;SHT31;63191;39.566;2.654;2023-06-10T00:19:01;21.38;82.22
74661;SHT31;63191;39.566;2.654;2023-06-10T00:21:32;21.36;82.14
74661;SHT31;63191;39.566;2.654;2023-06-10T00:24:05;21.34;82.05
74661;SHT31;63191;39.566;2.654;2023-06-10T00:26:37;21.34;82.02
74661;SHT31;63191;39.566;2.654;2023-06-10T00:29:06;21.33;82.00
74661;SHT31;63191;39.566;2.654;2023-06-10T00:31:34;21.32;82.00
74661;SHT31;63191;39.566;2.654;2023-06-10T00:34:01;21.32;82.00
74661;SHT31;63191;39.566;2.654;2023-06-10T00:36:27;21.31;82.00
74661;SHT31;63191;39.566;2.654;2023-06-10T00:38:54;21.31;81.99
74661;SHT31;63191;39.566;2.654;2023-06-10T00:41:19;21.28;81.92
74661;SHT31;63191;39.566;2.654;2023-06-10T00:43:45;21.28;81.83
74661;SHT31;63191;39.566;2.654;2023-06-10T00:46:11;21.27;81.81
74661;SHT31;63191;39.566;2.654;2023-06-10T00:48:38;21.26;81.90
74661;SHT31;63191;39.566;2.654;2023-06-10T00:51:05;21.25;81.92
74661;SHT31;63191;39.566;2.654;2023-06-10T00:53:34;21.25;81.99
74661;SHT31;63191;39.566;2.654;2023-06-10T00:56:03;21.22;81.90
74661;SHT31;63191;39.566;2.654;2023-06-10T00:58:29;21.21;81.81
74661;SHT31;63191;39.566;2.654;2023-06-10T01:00:56;21.19;81.72
74661;SHT31;63191;39.566;2.654;2023-06-10T01:03:23;21.18;81.66
74661;SHT31;63191;39.566;2.654;2023-06-10T01:06:14;21.15;81.60
74661;SHT31;63191;39.566;2.654;2023-06-10T01:11:38;21.08;81.61
74661;SHT31;63191;39.566;2.654;2023-06-10T01:14:11;21.07;81.70
74661;SHT31;63191;39.566;2.654;2023-06-10T01:16:39;21.07;81.73
74661;SHT31;63191;39.566;2.654;2023-06-10T01:19:06;21.06;81.74
74661;SHT31;63191;39.566;2.654;2023-06-10T01:21:32;21.06;81.80
74661;SHT31;63191;39.566;2.654;2023-06-10T01:23:58;21.04;81.80
74661;SHT31;63191;39.566;2.654;2023-06-10T01:26:26;21.03;81.81
74661;SHT31;63191;39.566;2.654;2023-06-10T01:32:04;21.00;81.84
74661;SHT31;63191;39.566;2.654;2023-06-10T01:34:40;21.00;81.83
74661;SHT31;63191;39.566;2.654;2023-06-10T01:37:08;21.00;81.83
74661;SHT31;63191;39.566;2.654;2023-06-10T01:39:39;20.99;81.86
74661;SHT31;63191;39.566;2.654;2023-06-10T01:42:05;20.98;81.90
74661;SHT31;63191;39.566;2.654;2023-06-10T01:44:32;20.96;81.95
74661;SHT31;63191;39.566;2.654;2023-06-10T01:46:57;20.95;81.91
74661;SHT31;63191;39.566;2.654;2023-06-10T01:49:23;20.93;81.91
74661;SHT31;63191;39.566;2.654;2023-06-10T01:51:50;20.93;81.95
74661;SHT31;63191;39.566;2.654;2023-06-10T01:54:16;20.93;82.01
74661;SHT31;63191;39.566;2.654;2023-06-10T01:56:42;20.93;82.06
74661;SHT31;63191;39.566;2.654;2023-06-10T01:59:07;20.92;82.06
74661;SHT31;63191;39.566;2.654;2023-06-10T02:01:33;20.91;82.06
74661;SHT31;63191;39.566;2.654;2023-06-10T02:03:59;20.90;82.10
74661;SHT31;63191;39.566;2.654;2023-06-10T02:06:25;20.89;82.10
74661;SHT31;63191;39.566;2.654;2023-06-10T02:08:50;20.89;82.15
74661;SHT31;63191;39.566;2.654;2023-06-10T02:11:16;20.89;82.20
74661;SHT31;63191;39.566;2.654;2023-06-10T02:13:42;20.89;82.22
74661;SHT31;63191;39.566;2.654;2023-06-10T02:16:08;20.87;82.19
74661;SHT31;63191;39.566;2.654;2023-06-10T02:18:37;20.87;82.20
74661;SHT31;63191;39.566;2.654;2023-06-10T02:21:06;20.87;82.20
74661;SHT31;63191;39.566;2.654;2023-06-10T02:23:32;20.87;82.20
74661;SHT31;63191;39.566;2.654;2023-06-10T02:25:57;20.89;82.20
74661;SHT31;63191;39.566;2.654;2023-06-10T02:28:23;20.88;82.17
74661;SHT31;63191;39.566;2.654;2023-06-10T02:30:50;20.90;82.08
74661;SHT31;63191;39.566;2.654;2023-06-10T02:33:17;20.90;82.00
74661;SHT31;63191;39.566;2.654;2023-06-10T02:35:43;20.91;81.94
74661;SHT31;63191;39.566;2.654;2023-06-10T02:38:09;20.91;81.88
74661;SHT31;63191;39.566;2.654;2023-06-10T02:40:35;20.91;81.79
74661;SHT31;63191;39.566;2.654;2023-06-10T02:43:00;20.90;81.68
74661;SHT31;63191;39.566;2.654;2023-06-10T02:45:26;20.88;81.60
74661;SHT31;63191;39.566;2.654;2023-06-10T02:47:52;20.86;81.60
74661;SHT31;63191;39.566;2.654;2023-06-10T02:50:17;20.83;81.53
74661;SHT31;63191;39.566;2.654;2023-06-10T02:52:43;20.80;81.47
74661;SHT31;63191;39.566;2.654;2023-06-10T02:55:09;20.76;81.40
74661;SHT31;63191;39.566;2.654;2023-06-10T02:57:35;20.74;81.38
74661;SHT31;63191;39.566;2.654;2023-06-10T03:00:01;20.71;81.39
74661;SHT31;63191;39.566;2.654;2023-06-10T03:02:29;20.69;81.44
74661;SHT31;63191;39.566;2.654;2023-06-10T03:04:57;20.67;81.50
74661;SHT31;63191;39.566;2.654;2023-06-10T03:07:23;20.64;81.55
74661;SHT31;63191;39.566;2.654;2023-06-10T03:09:50;20.62;81.62
74661;SHT31;63191;39.566;2.654;2023-06-10T03:12:16;20.61;81.71
74661;SHT31;63191;39.566;2.654;2023-06-10T03:14:41;20.62;81.79
74661;SHT31;63191;39.566;2.654;2023-06-10T03:17:07;20.62;81.80
74661;SHT31;63191;39.566;2.654;2023-06-10T03:19:33;20.63;81.83
74661;SHT31;63191;39.566;2.654;2023-06-10T03:22:10;20.63;81.83
74661;SHT31;63191;39.566;2.654;2023-06-10T03:24:39;20.64;81.92
74661;SHT31;63191;39.566;2.654;2023-06-10T03:27:06;20.67;82.00
74661;SHT31;63191;39.566;2.654;2023-06-10T03:29:33;20.71;82.00
74661;SHT31;63191;39.566;2.654;2023-06-10T03:31:59;20.75;82.01
74661;SHT31;63191;39.566;2.654;2023-06-10T03:34:25;20.80;82.00
74661;SHT31;63191;39.566;2.654;2023-06-10T03:36:50;20.83;81.91
74661;SHT31;63191;39.566;2.654;2023-06-10T03:39:16;20.86;81.82
74661;SHT31;63191;39.566;2.654;2023-06-10T03:41:42;20.90;81.73
74661;SHT31;63191;39.566;2.654;2023-06-10T03:44:08;20.94;81.61
74661;SHT31;63191;39.566;2.654;2023-06-10T03:46:33;20.97;81.31
74661;SHT31;63191;39.566;2.654;2023-06-10T03:48:59;20.99;80.98
74661;SHT31;63191;39.566;2.654;2023-06-10T03:51:28;20.98;80.64
74661;SHT31;63191;39.566;2.654;2023-06-10T03:53:55;20.98;80.40
74661;SHT31;63191;39.566;2.654;2023-06-10T03:56:21;20.96;80.25
74661;SHT31;63191;39.566;2.654;2023-06-10T03:58:46;20.94;80.14
74661;SHT31;63191;39.566;2.654;2023-06-10T04:01:12;20.95;80.04
74661;SHT31;63191;39.566;2.654;2023-06-10T04:03:43;20.94;79.90
74661;SHT31;63191;39.566;2.654;2023-06-10T04:06:09;20.94;79.82
74661;SHT31;63191;39.566;2.654;2023-06-10T04:08:35;20.94;79.77
74661;SHT31;63191;39.566;2.654;2023-06-10T04:11:01;20.95;79.68
74661;SHT31;63191;39.566;2.654;2023-06-10T04:13:27;20.94;79.58
74661;SHT31;63191;39.566;2.654;2023-06-10T04:15:53;20.95;79.51
74661;SHT31;63191;39.566;2.654;2023-06-10T04:18:22;20.94;79.48
74661;SHT31;63191;39.566;2.654;2023-06-10T04:20:47;20.93;79.39
74661;SHT31;63191;39.566;2.654;2023-06-10T04:23:13;20.92;79.23
74661;SHT31;63191;39.566;2.654;2023-06-10T04:25:39;20.90;78.98
74661;SHT31;63191;39.566;2.654;2023-06-10T04:28:05;20.88;78.64
74661;SHT31;63191;39.566;2.654;2023-06-10T04:30:30;20.86;78.41
74661;SHT31;63191;39.566;2.654;2023-06-10T04:32:56;20.83;78.31
74661;SHT31;63191;39.566;2.654;2023-06-10T04:35:22;20.85;78.21
74661;SHT31;63191;39.566;2.654;2023-06-10T04:37:49;20.85;78.06
74661;SHT31;63191;39.566;2.654;2023-06-10T04:40:15;20.86;77.93
74661;SHT31;63191;39.566;2.654;2023-06-10T04:42:41;20.88;77.90
74661;SHT31;63191;39.566;2.654;2023-06-10T04:45:07;20.89;77.81
74661;SHT31;63191;39.566;2.654;2023-06-10T04:47:34;20.92;77.79
74661;SHT31;63191;39.566;2.654;2023-06-10T04:50:00;20.93;77.71
74661;SHT31;63191;39.566;2.654;2023-06-10T04:52:27;20.97;77.66
74661;SHT31;63191;39.566;2.654;2023-06-10T04:54:53;21.01;77.60
74661;SHT31;63191;39.566;2.654;2023-06-10T04:57:19;21.05;77.59
74661;SHT31;63191;39.566;2.654;2023-06-10T04:59:46;21.08;77.53
74661;SHT31;63191;39.566;2.654;2023-06-10T05:02:12;21.12;77.51
74661;SHT31;63191;39.566;2.654;2023-06-10T05:04:38;21.18;77.49
74661;SHT31;63191;39.566;2.654;2023-06-10T05:07:04;21.24;77.37
74661;SHT31;63191;39.566;2.654;2023-06-10T05:09:30;21.33;77.21
74661;SHT31;63191;39.566;2.654;2023-06-10T05:11:57;21.44;77.00
74661;SHT31;63191;39.566;2.654;2023-06-10T05:14:23;21.58;76.79
74661;SHT31;63191;39.566;2.654;2023-06-10T05:16:49;21.70;76.60
74661;SHT31;63191;39.566;2.654;2023-06-10T05:19:15;21.82;76.45
74661;SHT31;63191;39.566;2.654;2023-06-10T05:21:44;21.94;76.30
74661;SHT31;63191;39.566;2.654;2023-06-10T05:24:11;22.06;76.07
74661;SHT31;63191;39.566;2.654;2023-06-10T05:26:37;22.19;75.91
74661;SHT31;63191;39.566;2.654;2023-06-10T05:29:06;22.32;75.77
74661;SHT31;63191;39.566;2.654;2023-06-10T05:31:34;22.64;75.37
74661;SHT31;63191;39.566;2.654;2023-06-10T05:34:00;23.30;74.41
74661;SHT31;63191;39.566;2.654;2023-06-10T05:36:25;23.37;74.26
74661;SHT31;63191;39.566;2.654;2023-06-10T05:38:51;23.41;74.12
74661;SHT31;63191;39.566;2.654;2023-06-10T05:41:17;23.53;73.96
74661;SHT31;63191;39.566;2.654;2023-06-10T05:43:43;23.84;73.46
74661;SHT31;63191;39.566;2.654;2023-06-10T05:46:09;23.86;73.37
74661;SHT31;63191;39.566;2.654;2023-06-10T05:48:34;23.81;73.31
74661;SHT31;63191;39.566;2.654;2023-06-10T05:51:00;23.73;73.41
74661;SHT31;63191;39.566;2.654;2023-06-10T05:53:26;23.66;73.47
74661;SHT31;63191;39.566;2.654;2023-06-10T05:55:51;23.60;73.59
74661;SHT31;63191;39.566;2.654;2023-06-10T05:58:19;23.57;73.64
74661;SHT31;63191;39.566;2.654;2023-06-10T06:00:45;23.52;73.70
74661;SHT31;63191;39.566;2.654;2023-06-10T06:03:11;23.49;73.63
74661;SHT31;63191;39.566;2.654;2023-06-10T06:05:37;23.45;73.60
74661;SHT31;63191;39.566;2.654;2023-06-10T06:08:06;23.44;73.67
74661;SHT31;63191;39.566;2.654;2023-06-10T06:10:33;23.45;73.77
74661;SHT31;63191;39.566;2.654;2023-06-10T06:13:00;23.50;73.89
74661;SHT31;63191;39.566;2.654;2023-06-10T06:15:26;23.57;73.91
74661;SHT31;63191;39.566;2.654;2023-06-10T06:17:52;23.63;74.00
74661;SHT31;63191;39.566;2.654;2023-06-10T06:20:18;23.68;73.85
74661;SHT31;63191;39.566;2.654;2023-06-10T06:22:45;23.68;73.72
74661;SHT31;63191;39.566;2.654;2023-06-10T06:25:11;23.66;73.63
74661;SHT31;63191;39.566;2.654;2023-06-10T06:27:37;23.67;73.78
74661;SHT31;63191;39.566;2.654;2023-06-10T06:30:03;23.73;73.92
74661;SHT31;63191;39.566;2.654;2023-06-10T06:32:30;23.80;73.94
74661;SHT31;63191;39.566;2.654;2023-06-10T06:34:56;23.85;73.81
74661;SHT31;63191;39.566;2.654;2023-06-10T06:37:25;23.93;73.68
74661;SHT31;63191;39.566;2.654;2023-06-10T06:39:51;24.04;73.35
74661;SHT31;63191;39.566;2.654;2023-06-10T06:42:19;24.17;73.06
74661;SHT31;63191;39.566;2.654;2023-06-10T06:44:48;24.33;72.77
74661;SHT31;63191;39.566;2.654;2023-06-10T06:47:14;24.53;72.59
74661;SHT31;63191;39.566;2.654;2023-06-10T06:49:42;24.74;72.12
74661;SHT31;63191;39.566;2.654;2023-06-10T06:52:08;24.94;71.74
74661;SHT31;63191;39.566;2.654;2023-06-10T06:54:34;25.19;71.40
74661;SHT31;63191;39.566;2.654;2023-06-10T06:57:00;25.45;71.13
74661;SHT31;63191;39.566;2.654;2023-06-10T06:59:26;25.71;70.64
74661;SHT31;63191;39.566;2.654;2023-06-10T07:01:51;26.00;70.12
74661;SHT31;63191;39.566;2.654;2023-06-10T07:04:19;26.33;69.44
74661;SHT31;63191;39.566;2.654;2023-06-10T07:06:47;26.70;68.79
74661;SHT31;63191;39.566;2.654;2023-06-10T07:09:16;27.04;67.90
74661;SHT31;63191;39.566;2.654;2023-06-10T07:11:41;27.30;66.97
74661;SHT31;63191;39.566;2.654;2023-06-10T07:14:07;27.59;66.24
74661;SHT31;63191;39.566;2.654;2023-06-10T07:16:33;27.94;65.53
74661;SHT31;63191;39.566;2.654;2023-06-10T07:18:59;28.22;64.71
74661;SHT31;63191;39.566;2.654;2023-06-10T07:21:25;28.38;64.23
74661;SHT31;63191;39.566;2.654;2023-06-10T07:23:50;28.38;63.61
74661;SHT31;63191;39.566;2.654;2023-06-10T07:26:19;28.22;62.54
74661;SHT31;63191;39.566;2.654;2023-06-10T07:28:46;27.96;62.49
74661;SHT31;63191;39.566;2.654;2023-06-10T07:31:12;27.70;62.80
74661;SHT31;63191;39.566;2.654;2023-06-10T07:33:38;27.48;63.37
74661;SHT31;63191;39.566;2.654;2023-06-10T07:36:08;27.24;63.48
74661;SHT31;63191;39.566;2.654;2023-06-10T07:38:35;27.03;64.16
74661;SHT31;63191;39.566;2.654;2023-06-10T07:41:02;26.90;64.53
74661;SHT31;63191;39.566;2.654;2023-06-10T07:43:27;26.74;64.47
74661;SHT31;63191;39.566;2.654;2023-06-10T07:45:53;26.64;64.89
74661;SHT31;63191;39.566;2.654;2023-06-10T07:48:19;26.63;65.43
74661;SHT31;63191;39.566;2.654;2023-06-10T07:50:44;26.69;65.43
74661;SHT31;63191;39.566;2.654;2023-06-10T07:53:10;26.68;64.94
74661;SHT31;63191;39.566;2.654;2023-06-10T07:55:36;26.82;64.95
74661;SHT31;63191;39.566;2.654;2023-06-10T07:58:02;27.03;65.14
74661;SHT31;63191;39.566;2.654;2023-06-10T08:00:27;27.40;65.31
74661;SHT31;63191;39.566;2.654;2023-06-10T08:02:53;27.77;63.89
74661;SHT31;63191;39.566;2.654;2023-06-10T08:05:19;27.91;62.89
74661;SHT31;63191;39.566;2.654;2023-06-10T08:07:45;28.02;62.84
74661;SHT31;63191;39.566;2.654;2023-06-10T08:10:12;28.23;62.93
74661;SHT31;63191;39.566;2.654;2023-06-10T08:12:38;28.48;62.51
74661;SHT31;63191;39.566;2.654;2023-06-10T08:15:04;28.61;61.43
74661;SHT31;63191;39.566;2.654;2023-06-10T08:17:31;28.78;61.69
74661;SHT31;63191;39.566;2.654;2023-06-10T08:19:57;28.73;61.04
74661;SHT31;63191;39.566;2.654;2023-06-10T08:22:22;28.56;60.95
74661;SHT31;63191;39.566;2.654;2023-06-10T08:24:48;28.24;60.59
74661;SHT31;63191;39.566;2.654;2023-06-10T08:27:14;27.97;61.18
74661;SHT31;63191;39.566;2.654;2023-06-10T08:29:40;27.81;62.02
74661;SHT31;63191;39.566;2.654;2023-06-10T08:32:06;27.65;61.74
74661;SHT31;63191;39.566;2.654;2023-06-10T08:34:35;27.53;62.46
74661;SHT31;63191;39.566;2.654;2023-06-10T08:37:01;27.55;62.71
74661;SHT31;63191;39.566;2.654;2023-06-10T08:39:28;27.52;62.67
74661;SHT31;63191;39.566;2.654;2023-06-10T08:44:59;28.00;63.26
74661;SHT31;63191;39.566;2.654;2023-06-10T08:47:28;28.33;61.65
74661;SHT31;63191;39.566;2.654;2023-06-10T08:50:02;28.86;62.05
74661;SHT31;63191;39.566;2.654;2023-06-10T08:52:29;29.50;60.15
74661;SHT31;63191;39.566;2.654;2023-06-10T08:55:03;30.09;59.08
74661;SHT31;63191;39.566;2.654;2023-06-10T08:57:36;30.26;57.28
74661;SHT31;63191;39.566;2.654;2023-06-10T09:00:02;30.02;56.27
74661;SHT31;63191;39.566;2.654;2023-06-10T09:02:29;29.69;56.71
74661;SHT31;63191;39.566;2.654;2023-06-10T09:04:56;29.51;57.49
74661;SHT31;63191;39.566;2.654;2023-06-10T09:07:23;29.60;58.19
74661;SHT31;63191;39.566;2.654;2023-06-10T09:09:49;29.94;57.67
74661;SHT31;63191;39.566;2.654;2023-06-10T09:12:15;30.55;56.38
74661;SHT31;63191;39.566;2.654;2023-06-10T09:14:41;30.73;54.67
74661;SHT31;63191;39.566;2.654;2023-06-10T09:17:08;30.70;54.77
74661;SHT31;63191;39.566;2.654;2023-06-10T09:19:34;30.54;54.98
74661;SHT31;63191;39.566;2.654;2023-06-10T09:22:00;30.50;55.22
74661;SHT31;63191;39.566;2.654;2023-06-10T09:24:26;30.43;55.33
74661;SHT31;63191;39.566;2.654;2023-06-10T09:27:03;30.33;55.30
74661;SHT31;63191;39.566;2.654;2023-06-10T09:29:31;30.08;55.57
74661;SHT31;63191;39.566;2.654;2023-06-10T09:32:13;29.83;55.98
74661;SHT31;63191;39.566;2.654;2023-06-10T09:34:39;29.61;56.29
74661;SHT31;63191;39.566;2.654;2023-06-10T09:37:06;29.48;57.17
74661;SHT31;63191;39.566;2.654;2023-06-10T09:39:33;29.46;57.28
74661;SHT31;63191;39.566;2.654;2023-06-10T09:41:59;29.23;57.49
74661;SHT31;63191;39.566;2.654;2023-06-10T09:44:24;28.82;58.25
74661;SHT31;63191;39.566;2.654;2023-06-10T09:46:50;28.25;59.75
74661;SHT31;63191;39.566;2.654;2023-06-10T09:49:16;27.70;61.24
74661;SHT31;63191;39.566;2.654;2023-06-10T09:51:52;27.31;62.75
74661;SHT31;63191;39.566;2.654;2023-06-10T09:54:20;27.24;63.84
74661;SHT31;63191;39.566;2.654;2023-06-10T09:56:47;27.53;63.59
74661;SHT31;63191;39.566;2.654;2023-06-10T09:59:15;27.90;62.36
74661;SHT31;63191;39.566;2.654;2023-06-10T10:01:41;28.24;61.60
74661;SHT31;63191;39.566;2.654;2023-06-10T10:04:07;28.42;61.29
74661;SHT31;63191;39.566;2.654;2023-06-10T10:06:33;28.33;61.30
74661;SHT31;63191;39.566;2.654;2023-06-10T10:09:00;28.22;61.74
74661;SHT31;63191;39.566;2.654;2023-06-10T10:11:28;28.20;62.13
74661;SHT31;63191;39.566;2.654;2023-06-10T10:13:57;28.33;62.10
74661;SHT31;63191;39.566;2.654;2023-06-10T10:16:27;28.49;61.81
74661;SHT31;63191;39.566;2.654;2023-06-10T10:19:18;28.53;61.64
74661;SHT31;63191;39.566;2.654;2023-06-10T10:21:52;28.58;61.57
74661;SHT31;63191;39.566;2.654;2023-06-10T10:24:27;28.61;61.21
74661;SHT31;63191;39.566;2.654;2023-06-10T10:26:59;28.51;61.02
74661;SHT31;63191;39.566;2.654;2023-06-10T10:29:31;28.28;61.09
74661;SHT31;63191;39.566;2.654;2023-06-10T10:32:03;28.20;61.88
74661;SHT31;63191;39.566;2.654;2023-06-10T10:34:37;28.48;62.22
74661;SHT31;63191;39.566;2.654;2023-06-10T10:37:19;28.82;61.19
74661;SHT31;63191;39.566;2.654;2023-06-10T10:39:45;28.97;61.04
74661;SHT31;63191;39.566;2.654;2023-06-10T10:42:12;29.25;61.16
74661;SHT31;63191;39.566;2.654;2023-06-10T10:44:39;29.47;60.36
74661;SHT31;63191;39.566;2.654;2023-06-10T10:47:08;29.43;59.91
74661;SHT31;63191;39.566;2.654;2023-06-10T10:49:35;29.25;60.07
74661;SHT31;63191;39.566;2.654;2023-06-10T10:52:02;29.11;60.45
74661;SHT31;63191;39.566;2.654;2023-06-10T10:54:33;29.02;60.59
74661;SHT31;63191;39.566;2.654;2023-06-10T10:57:11;29.12;61.32
74661;SHT31;63191;39.566;2.654;2023-06-10T10:59:57;29.35;60.68
74661;SHT31;63191;39.566;2.654;2023-06-10T11:02:35;29.49;60.00
74661;SHT31;63191;39.566;2.654;2023-06-10T11:05:14;29.55;59.59
74661;SHT31;63191;39.566;2.654;2023-06-10T11:07:51;29.55;59.34
74661;SHT31;63191;39.566;2.654;2023-06-10T11:10:28;29.47;59.51
74661;SHT31;63191;39.566;2.654;2023-06-10T11:13:09;29.47;59.88
74661;SHT31;63191;39.566;2.654;2023-06-10T11:15:43;29.49;59.93
74661;SHT31;63191;39.566;2.654;2023-06-10T11:18:24;29.58;59.79
74661;SHT31;63191;39.566;2.654;2023-06-10T11:33:56;30.38;60.22
74661;SHT31;63191;39.566;2.654;2023-06-10T11:36:25;30.74;58.46
74661;SHT31;63191;39.566;2.654;2023-06-10T11:38:54;30.89;57.34
74661;SHT31;63191;39.566;2.654;2023-06-10T11:41:31;30.98;57.09
74661;SHT31;63191;39.566;2.654;2023-06-10T11:44:02;30.97;56.24
74661;SHT31;63191;39.566;2.654;2023-06-10T11:46:30;30.83;56.90
74661;SHT31;63191;39.566;2.654;2023-06-10T11:48:57;30.85;57.46
74661;SHT31;63191;39.566;2.654;2023-06-10T11:51:28;31.02;57.10
74661;SHT31;63191;39.566;2.654;2023-06-10T11:54:03;31.11;56.35
74661;SHT31;63191;39.566;2.654;2023-06-10T11:56:30;31.03;55.70
74661;SHT31;63191;39.566;2.654;2023-06-10T11:58:58;30.88;55.85
74661;SHT31;63191;39.566;2.654;2023-06-10T12:01:31;30.76;55.76
74661;SHT31;63191;39.566;2.654;2023-06-10T12:04:03;30.58;55.77
74661;SHT31;63191;39.566;2.654;2023-06-10T12:06:38;30.32;55.59
74661;SHT31;63191;39.566;2.654;2023-06-10T12:09:13;30.07;57.12
74661;SHT31;63191;39.566;2.654;2023-06-10T12:12:00;30.08;57.60
74661;SHT31;63191;39.566;2.654;2023-06-10T12:20:00;29.99;57.16
74661;SHT31;63191;39.566;2.654;2023-06-10T12:22:26;29.86;57.35
74661;SHT31;63191;39.566;2.654;2023-06-10T12:24:59;29.84;57.67
74661;SHT31;63191;39.566;2.654;2023-06-10T12:27:28;29.78;57.80
74661;SHT31;63191;39.566;2.654;2023-06-10T12:29:56;29.72;57.98
74661;SHT31;63191;39.566;2.654;2023-06-10T12:35:09;29.57;58.21
74661;SHT31;63191;39.566;2.654;2023-06-10T12:37:38;29.45;58.41
74661;SHT31;63191;39.566;2.654;2023-06-10T12:40:05;29.34;58.96
74661;SHT31;63191;39.566;2.654;2023-06-10T12:42:35;29.33;59.06
74661;SHT31;63191;39.566;2.654;2023-06-10T12:45:02;29.25;59.15
74661;SHT31;63191;39.566;2.654;2023-06-10T12:47:36;29.13;59.34
74661;SHT31;63191;39.566;2.654;2023-06-10T12:50:07;29.09;59.85
74661;SHT31;63191;39.566;2.654;2023-06-10T12:52:34;29.09;59.98
74661;SHT31;63191;39.566;2.654;2023-06-10T12:54:59;29.11;59.97
74661;SHT31;63191;39.566;2.654;2023-06-10T12:57:26;29.15;60.09
74661;SHT31;63191;39.566;2.654;2023-06-10T12:59:52;29.38;60.54
74661;SHT31;63191;39.566;2.654;2023-06-10T13:02:20;29.70;59.82
74661;SHT31;63191;39.566;2.654;2023-06-10T13:04:49;29.97;58.86
74661;SHT31;63191;39.566;2.654;2023-06-10T13:07:16;29.97;58.52
74661;SHT31;63191;39.566;2.654;2023-06-10T13:09:43;30.14;58.92
74661;SHT31;63191;39.566;2.654;2023-06-10T13:12:09;30.31;58.08
74661;SHT31;63191;39.566;2.654;2023-06-10T13:14:36;30.39;57.99
74661;SHT31;63191;39.566;2.654;2023-06-10T13:17:03;30.51;57.85
74661;SHT31;63191;39.566;2.654;2023-06-10T13:19:32;30.54;56.85
74661;SHT31;63191;39.566;2.654;2023-06-10T13:21:58;30.39;57.27
74661;SHT31;63191;39.566;2.654;2023-06-10T13:24:24;30.33;58.10
74661;SHT31;63191;39.566;2.654;2023-06-10T13:26:51;30.32;58.07
74661;SHT31;63191;39.566;2.654;2023-06-10T13:29:17;30.19;58.31
74661;SHT31;63191;39.566;2.654;2023-06-10T13:31:42;29.86;58.67
74661;SHT31;63191;39.566;2.654;2023-06-10T13:34:08;29.51;59.75
74661;SHT31;63191;39.566;2.654;2023-06-10T13:36:34;29.11;61.03
74661;SHT31;63191;39.566;2.654;2023-06-10T13:39:00;28.74;61.93
74661;SHT31;63191;39.566;2.654;2023-06-10T13:41:25;28.49;62.79
74661;SHT31;63191;39.566;2.654;2023-06-10T13:43:54;28.31;63.71
74661;SHT31;63191;39.566;2.654;2023-06-10T13:46:20;28.14;64.39
74661;SHT31;63191;39.566;2.654;2023-06-10T13:48:47;28.10;64.60
74661;SHT31;63191;39.566;2.654;2023-06-10T13:51:15;28.10;65.10
74661;SHT31;63191;39.566;2.654;2023-06-10T13:53:41;28.06;64.77
74661;SHT31;63191;39.566;2.654;2023-06-10T13:56:07;28.02;65.01
74661;SHT31;63191;39.566;2.654;2023-06-10T13:58:33;28.07;65.60
74661;SHT31;63191;39.566;2.654;2023-06-10T14:01:04;28.12;65.64
74661;SHT31;63191;39.566;2.654;2023-06-10T14:03:30;28.15;65.32
74661;SHT31;63191;39.566;2.654;2023-06-10T14:05:56;28.17;65.51
74661;SHT31;63191;39.566;2.654;2023-06-10T14:08:22;28.17;65.53
74661;SHT31;63191;39.566;2.654;2023-06-10T14:10:48;28.20;65.87
74661;SHT31;63191;39.566;2.654;2023-06-10T14:13:15;28.19;66.06
74661;SHT31;63191;39.566;2.654;2023-06-10T14:15:42;28.17;65.81
74661;SHT31;63191;39.566;2.654;2023-06-10T14:18:08;28.18;65.92
74661;SHT31;63191;39.566;2.654;2023-06-10T14:20:35;28.14;65.80
74661;SHT31;63191;39.566;2.654;2023-06-10T14:23:01;28.07;66.02
74661;SHT31;63191;39.566;2.654;2023-06-10T14:25:27;28.10;66.69
74661;SHT31;63191;39.566;2.654;2023-06-10T14:27:53;28.17;66.16
74661;SHT31;63191;39.566;2.654;2023-06-10T14:30:19;28.17;65.96
74661;SHT31;63191;39.566;2.654;2023-06-10T14:32:45;28.11;65.99
74661;SHT31;63191;39.566;2.654;2023-06-10T14:35:10;28.07;66.39
74661;SHT31;63191;39.566;2.654;2023-06-10T14:37:36;28.00;66.25
74661;SHT31;63191;39.566;2.654;2023-06-10T14:40:05;27.86;66.44
74661;SHT31;63191;39.566;2.654;2023-06-10T14:42:32;27.84;67.11
74661;SHT31;63191;39.566;2.654;2023-06-10T14:44:58;27.87;67.27
74661;SHT31;63191;39.566;2.654;2023-06-10T14:47:24;27.84;66.98
74661;SHT31;63191;39.566;2.654;2023-06-10T14:49:50;27.81;67.26
74661;SHT31;63191;39.566;2.654;2023-06-10T14:52:16;27.67;67.47
74661;SHT31;63191;39.566;2.654;2023-06-10T14:54:41;27.53;67.61
74661;SHT31;63191;39.566;2.654;2023-06-10T14:57:08;27.45;68.40
74661;SHT31;63191;39.566;2.654;2023-06-10T14:59:34;27.34;69.14
74661;SHT31;63191;39.566;2.654;2023-06-10T15:02:00;27.33;69.59
74661;SHT31;63191;39.566;2.654;2023-06-10T15:04:26;27.36;69.75
74661;SHT31;63191;39.566;2.654;2023-06-10T15:06:53;27.34;69.34
74661;SHT31;63191;39.566;2.654;2023-06-10T15:09:19;27.35;69.63
74661;SHT31;63191;39.566;2.654;2023-06-10T15:11:45;27.30;69.43
74661;SHT31;63191;39.566;2.654;2023-06-10T15:14:11;27.26;69.65
74661;SHT31;63191;39.566;2.654;2023-06-10T15:16:37;27.30;69.59
74661;SHT31;63191;39.566;2.654;2023-06-10T15:19:02;27.31;69.47
74661;SHT31;63191;39.566;2.654;2023-06-10T15:21:28;27.26;69.68
74661;SHT31;63191;39.566;2.654;2023-06-10T15:23:54;27.25;69.62
74661;SHT31;63191;39.566;2.654;2023-06-10T15:26:20;27.17;69.68
74661;SHT31;63191;39.566;2.654;2023-06-10T15:28:46;27.08;70.23
74661;SHT31;63191;39.566;2.654;2023-06-10T15:31:11;27.01;70.64
74661;SHT31;63191;39.566;2.654;2023-06-10T15:33:37;26.98;70.90
74661;SHT31;63191;39.566;2.654;2023-06-10T15:36:03;26.90;70.91
74661;SHT31;63191;39.566;2.654;2023-06-10T15:38:30;26.79;71.38
74661;SHT31;63191;39.566;2.654;2023-06-10T15:40:55;26.75;71.93
74661;SHT31;63191;39.566;2.654;2023-06-10T15:43:21;26.70;72.01
74661;SHT31;63191;39.566;2.654;2023-06-10T15:45:47;26.60;72.28
74661;SHT31;63191;39.566;2.654;2023-06-10T15:48:13;26.49;72.88
74661;SHT31;63191;39.566;2.654;2023-06-10T15:50:38;26.45;73.27
74661;SHT31;63191;39.566;2.654;2023-06-10T15:53:04;26.35;73.41
74661;SHT31;63191;39.566;2.654;2023-06-10T15:55:30;26.23;73.56
74661;SHT31;63191;39.566;2.654;2023-06-10T15:57:56;26.17;74.04
74661;SHT31;63191;39.566;2.654;2023-06-10T16:00:25;26.12;74.45
74661;SHT31;63191;39.566;2.654;2023-06-10T16:02:51;26.16;74.68